La Habra, California
Current Conditions -  °F | °C
As of 12:53 AM on Monday 20 Oct 2014 (Local Time) from KFUL Reporting Station
Clear Clear  
Wind Chill: 66°   Ceiling: Unl
Heat Index: 66°   Visibility: 10mi
Dew Point: 61°   Wind: 0mph
Humidity: 84%   Direction: NA
Pressure: 29.88"   Gusts: NA
Location:  33.93°N, 117.94°W
Report Text: KFUL 200753Z 00000KT 10SM CLR 19/16 A2988 RMK AO2 SLP118 T01890161 402610156 $
Loading
Personal Weather Stations






























Interactive Weather Map New forecast layout! Learn more

10-Day Weather Forecast

Advertisements
Track Severe Weather on mobile